x

Buoy B01 - Western Maine Shelf (44030) Wave Buoy

12:04 - Mon 28th Jul 2014 All times are EDT. -4 hours from GMT.

  • Sig Wave height 2.6ft
  • Peak Period 5s
  • Wind
    11mph, 13mph gusts
  • Sea Temp 62°f
  • Ar Temp 64°f
  • Sea Pressure 1003.6mb
  • Buoy B01 - Western Maine Shelf
  • Buoy B01 - Western Maine Shelf

More Historic Weather Station data

Upgrade to MSW Pro to gain access to the past 30 days of data for over 8000 Wavebouys and Weather Stations around the globe.

Join Pro

Comparision Forecast

View Surf forecast
   
Seg 07/28 12:04 2.5ft 5s 11 13 mph 1003.6mb 62f 64f
Dom 07/27 11:04 2.5ft 5s 9
mph
1003.8mb 62f 64f
10:04 2.5ft 8s 11 13 mph 1004mb 62f 64f
9:04 3ft 5s 11 13 mph 1004.5mb 62f 64f
8:04 3.5ft 8s 13 16 mph 1003.9mb 63f 65f
7:04 3.5ft 5s 13 16 mph 1004.2mb 63f 65f
6:04 4.5ft 5s 18 20 mph 1003.9mb 63f 65f
5:04 4ft 5s 18 22 mph 1005mb 64f 65f
4:04 3ft 5s 20 22 mph 1005.4mb 64f 66f
3:04 2.5ft 4s 13 16 mph 1006mb 64f 65f
2:04 2.5ft 4s 18 20 mph 1005.8mb 65f 65f
1:04 2.5ft 4s 18 22 mph 1006.5mb 65f 66f
12:04 2.5ft 8s 13 18 mph 1006.7mb 66f 66f
11:04 3ft 8s 13 16 mph 1007.3mb 66f 65f
10:04 2.5ft 8s 11 13 mph 1007.9mb 66f 65f
9:04 2.5ft 8s 11
mph
1008.8mb 66f 65f
8:04 2ft 8s 11 13 mph 1008.9mb 65f 65f
Sáb 07/26 11:04 3ft 5s 16 18 mph 1010.4mb 66f 68f
10:04 3ft 8s 16 18 mph 1010.4mb 66f 68f
9:04 2ft 5s 13 16 mph 1010.1mb 66f 68f
8:04 3ft 8s 9 11 mph 1009.7mb 66f 68f
7:04 3ft 4s 9 13 mph 1009.7mb 67f 69f
6:04 3ft 4s 13 18 mph 1009.7mb 67f 68f
5:04 2.5ft 8s 16 18 mph 1010mb 67f 68f
2:04 1.3ft 4s 16 18 mph 1011.1mb 67f 68f
1:04 1.3ft 4s 16 18 mph 1011.6mb 67f 67f
12:04 2ft 8s 9 11 mph 1012.3mb 67f 66f
11:04 1.6ft 8s 11
mph
1012.6mb 66f 66f
10:04 2.5ft 8s 11 13 mph 1012.9mb 66f 65f
9:04 2ft 8s 11 13 mph 1013.4mb 66f 65f
8:04 2ft 8s 11 13 mph 1013.3mb 66f 64f
7:04 2ft 8s 11 16 mph 1013.3mb 66f 65f
6:04 2.5ft 8s 7 9 mph 1013mb 66f 65f
5:04 2ft 8s 9 11 mph 1013mb 66f 65f
4:04 2ft 11s 9
mph
1012.9mb 66f 65f
3:04  -   -  11 13 mph 1012.7mb 66f 65f
2:04 2ft 11s 9 11 mph 1012.6mb 66f 66f
1:04  -   -  7
mph
1012.9mb 66f 66f
12:04 2.5ft 11s 7 9 mph 1012.9mb 66f 65f
Sex 07/25 11:04 2.5ft 8s 11 13 mph 1012.8mb 66f 66f
10:04 2.5ft 8s 13 16 mph 1012.7mb 66f 66f
9:04 2.5ft 8s 11 13 mph 1012.4mb 66f 67f
8:04 2.5ft 8s 11 13 mph 1011.9mb 66f 67f
7:04 2ft 8s 11 13 mph 1011.8mb 66f 67f
6:04 2ft 8s 13 16 mph 1011.4mb 66f 67f
5:04 2ft 8s 11 13 mph 1011.5mb 66f 68f
4:04 1.6ft 8s 11 16 mph 1011.8mb 66f 67f
3:04 2ft 8s 13 16 mph 1011.7mb 66f 67f
2:04 1.6ft 11s 11 13 mph 1012.1mb 66f 67f
1:04 1.3ft 11s 11
mph
1012.3mb 66f 67f
12:04 1.3ft 5s 9 11 mph 1012.9mb 66f 66f
11:04 1.3ft 8s 7 9 mph 1013.4mb 65f 65f
10:04 1.3ft 8s 7
mph
1013.3mb 65f 64f
9:04 1.6ft 11s 4
mph
1013.2mb 65f 64f
8:04 2ft 8s 4 7 mph 1013.2mb 65f 63f
7:04 2ft 8s 4 7 mph 1013mb 65f 63f
6:04 2.5ft 8s 7
mph
1012.6mb 65f 62f
5:04 2.5ft 8s 11 13 mph 1012.1mb 65f 62f
4:04 2ft 11s 9 11 mph 1011.9mb 65f 63f
3:04 1.6ft 8s 9
mph
1011.8mb 65f 64f
2:04 1.6ft 8s 9
mph
1011.7mb 65f 65f
1:04 1.6ft 8s 2 4 mph 1011.4mb 64f 64f
12:04 1.6ft 8s 2
mph
1011mb 65f 64f
Qui 07/24 11:04 2ft 8s 2
mph
1010.7mb 65f 64f
10:04 1.6ft 11s 7
mph
1010.5mb 65f 64f
9:04 1.6ft 8s 7 9 mph 1009.9mb 65f 64f
8:04 1.3ft 8s 7
mph
1009.4mb 65f 65f
7:04 1.6ft 11s 4 7 mph 1009.3mb 65f 65f
6:04 2ft 8s 7 9 mph 1009.4mb 66f 65f
5:04 2ft 8s 4 7 mph 1009.2mb 65f 65f
4:04  -   -  7 9 mph 1009.3mb 65f 65f
3:04 1.6ft 4s 11
mph
1008.9mb 65f 65f
2:04 2ft 8s 9 11 mph 1009.3mb 65f 66f
1:04 1.6ft 5s 9 11 mph 1009.4mb 64f 65f
12:04 1.3ft 4s 11
mph
1009.4mb 64f 65f
11:04 2.5ft 6s 11
mph
1009.3mb 64f 65f
10:04 3ft 8s 13 16 mph 1008.6mb 64f 65f
9:04 2.5ft 8s 9 11 mph 1008.3mb 64f 64f